sensor_id;sensor_type;location;lat;lon;timestamp;temperature;humidity
728;DHT22;347;48.780;9.158;2023-04-24T00:00:42;12.60;39.70
728;DHT22;347;48.780;9.158;2023-04-24T00:03:07;12.60;39.30
728;DHT22;347;48.780;9.158;2023-04-24T00:05:33;12.60;39.00
728;DHT22;347;48.780;9.158;2023-04-24T00:07:59;12.60;39.10
728;DHT22;347;48.780;9.158;2023-04-24T00:10:25;12.60;38.90
728;DHT22;347;48.780;9.158;2023-04-24T00:12:51;12.60;38.30
728;DHT22;347;48.780;9.158;2023-04-24T00:15:16;12.60;37.70
728;DHT22;347;48.780;9.158;2023-04-24T00:17:42;12.60;37.50
728;DHT22;347;48.780;9.158;2023-04-24T00:20:08;12.70;37.40
728;DHT22;347;48.780;9.158;2023-04-24T00:22:35;12.70;37.20
728;DHT22;347;48.780;9.158;2023-04-24T00:25:01;12.80;37.60
728;DHT22;347;48.780;9.158;2023-04-24T00:27:26;12.80;37.20
728;DHT22;347;48.780;9.158;2023-04-24T00:29:52;12.80;37.00
728;DHT22;347;48.780;9.158;2023-04-24T00:32:18;12.80;36.80
728;DHT22;347;48.780;9.158;2023-04-24T00:34:46;12.90;36.90
728;DHT22;347;48.780;9.158;2023-04-24T00:37:12;12.90;36.20
728;DHT22;347;48.780;9.158;2023-04-24T00:39:37;12.90;36.00
728;DHT22;347;48.780;9.158;2023-04-24T00:42:03;13.00;36.60
728;DHT22;347;48.780;9.158;2023-04-24T00:44:31;13.00;35.70
728;DHT22;347;48.780;9.158;2023-04-24T00:46:58;13.00;35.60
728;DHT22;347;48.780;9.158;2023-04-24T00:49:24;12.90;35.30
728;DHT22;347;48.780;9.158;2023-04-24T00:51:50;13.00;35.10
728;DHT22;347;48.780;9.158;2023-04-24T00:54:17;13.00;35.10
728;DHT22;347;48.780;9.158;2023-04-24T00:56:43;12.90;34.50
728;DHT22;347;48.780;9.158;2023-04-24T00:59:10;12.90;34.90
728;DHT22;347;48.780;9.158;2023-04-24T01:01:36;12.90;35.10
728;DHT22;347;48.780;9.158;2023-04-24T01:04:02;12.90;35.10
728;DHT22;347;48.780;9.158;2023-04-24T01:06:29;12.90;35.00
728;DHT22;347;48.780;9.158;2023-04-24T01:08:57;12.90;35.20
728;DHT22;347;48.780;9.158;2023-04-24T01:11:22;12.90;35.20
728;DHT22;347;48.780;9.158;2023-04-24T01:13:48;12.90;35.80
728;DHT22;347;48.780;9.158;2023-04-24T01:16:14;12.90;35.40
728;DHT22;347;48.780;9.158;2023-04-24T01:18:43;12.90;35.60
728;DHT22;347;48.780;9.158;2023-04-24T01:21:09;12.90;35.70
728;DHT22;347;48.780;9.158;2023-04-24T01:23:35;12.90;35.70
728;DHT22;347;48.780;9.158;2023-04-24T01:26:02;12.90;35.50
728;DHT22;347;48.780;9.158;2023-04-24T01:28:27;13.00;35.50
728;DHT22;347;48.780;9.158;2023-04-24T01:30:53;12.90;35.70
728;DHT22;347;48.780;9.158;2023-04-24T01:33:21;13.00;37.90
728;DHT22;347;48.780;9.158;2023-04-24T01:35:47;13.00;37.60
728;DHT22;347;48.780;9.158;2023-04-24T01:38:13;13.00;37.50
728;DHT22;347;48.780;9.158;2023-04-24T01:40:39;12.90;37.40
728;DHT22;347;48.780;9.158;2023-04-24T01:43:05;12.90;38.00
728;DHT22;347;48.780;9.158;2023-04-24T01:45:31;12.90;37.90
728;DHT22;347;48.780;9.158;2023-04-24T01:47:56;12.70;38.20
728;DHT22;347;48.780;9.158;2023-04-24T01:50:22;12.70;38.70
728;DHT22;347;48.780;9.158;2023-04-24T01:52:48;12.70;39.00
728;DHT22;347;48.780;9.158;2023-04-24T01:55:13;12.70;39.10
728;DHT22;347;48.780;9.158;2023-04-24T01:57:39;12.70;38.90
728;DHT22;347;48.780;9.158;2023-04-24T02:00:06;12.70;38.50
728;DHT22;347;48.780;9.158;2023-04-24T02:02:32;12.70;38.30
728;DHT22;347;48.780;9.158;2023-04-24T02:04:58;12.70;38.40
728;DHT22;347;48.780;9.158;2023-04-24T02:10:45;12.70;38.30
728;DHT22;347;48.780;9.158;2023-04-24T02:13:11;12.80;37.90
728;DHT22;347;48.780;9.158;2023-04-24T02:15:37;12.80;38.00
728;DHT22;347;48.780;9.158;2023-04-24T02:18:02;12.90;38.20
728;DHT22;347;48.780;9.158;2023-04-24T02:20:28;12.90;37.80
728;DHT22;347;48.780;9.158;2023-04-24T02:22:54;12.90;37.80
728;DHT22;347;48.780;9.158;2023-04-24T02:25:20;12.90;37.70
728;DHT22;347;48.780;9.158;2023-04-24T02:27:46;12.80;38.10
728;DHT22;347;48.780;9.158;2023-04-24T02:30:11;12.70;38.40
728;DHT22;347;48.780;9.158;2023-04-24T02:32:37;12.70;38.80
728;DHT22;347;48.780;9.158;2023-04-24T02:35:04;12.70;39.00
728;DHT22;347;48.780;9.158;2023-04-24T02:37:30;12.70;39.00
728;DHT22;347;48.780;9.158;2023-04-24T02:39:55;12.70;39.00
728;DHT22;347;48.780;9.158;2023-04-24T02:42:21;12.70;38.90
728;DHT22;347;48.780;9.158;2023-04-24T02:44:47;12.80;39.70
728;DHT22;347;48.780;9.158;2023-04-24T02:47:12;12.80;40.50
728;DHT22;347;48.780;9.158;2023-04-24T02:49:38;12.80;42.30
728;DHT22;347;48.780;9.158;2023-04-24T02:52:03;12.90;43.20
728;DHT22;347;48.780;9.158;2023-04-24T02:54:29;12.90;42.90
728;DHT22;347;48.780;9.158;2023-04-24T02:56:54;12.80;43.10
728;DHT22;347;48.780;9.158;2023-04-24T02:59:20;12.80;42.60
728;DHT22;347;48.780;9.158;2023-04-24T03:01:46;12.80;42.90
728;DHT22;347;48.780;9.158;2023-04-24T03:04:11;12.70;43.80
728;DHT22;347;48.780;9.158;2023-04-24T03:06:37;12.70;42.60
728;DHT22;347;48.780;9.158;2023-04-24T03:09:02;12.70;42.60
728;DHT22;347;48.780;9.158;2023-04-24T03:11:28;12.60;43.90
728;DHT22;347;48.780;9.158;2023-04-24T03:13:54;12.50;43.80
728;DHT22;347;48.780;9.158;2023-04-24T03:16:20;12.50;44.00
728;DHT22;347;48.780;9.158;2023-04-24T03:18:45;12.50;43.80
728;DHT22;347;48.780;9.158;2023-04-24T03:21:11;12.50;44.70
728;DHT22;347;48.780;9.158;2023-04-24T03:23:37;12.40;44.50
728;DHT22;347;48.780;9.158;2023-04-24T03:26:03;12.40;45.10
728;DHT22;347;48.780;9.158;2023-04-24T03:28:28;12.40;45.00
728;DHT22;347;48.780;9.158;2023-04-24T03:30:54;12.40;45.30
728;DHT22;347;48.780;9.158;2023-04-24T03:33:19;12.40;45.10
728;DHT22;347;48.780;9.158;2023-04-24T03:35:45;12.50;45.20
728;DHT22;347;48.780;9.158;2023-04-24T03:38:11;12.50;44.50
728;DHT22;347;48.780;9.158;2023-04-24T03:40:36;12.50;44.60
728;DHT22;347;48.780;9.158;2023-04-24T03:43:02;12.40;44.30
728;DHT22;347;48.780;9.158;2023-04-24T03:45:27;12.40;44.70
728;DHT22;347;48.780;9.158;2023-04-24T03:47:53;12.40;45.10
728;DHT22;347;48.780;9.158;2023-04-24T03:50:19;12.30;44.90
728;DHT22;347;48.780;9.158;2023-04-24T03:52:44;12.20;44.80
728;DHT22;347;48.780;9.158;2023-04-24T03:55:10;12.20;44.70
728;DHT22;347;48.780;9.158;2023-04-24T03:57:39;12.20;44.90
728;DHT22;347;48.780;9.158;2023-04-24T04:00:05;12.20;45.30
728;DHT22;347;48.780;9.158;2023-04-24T04:02:31;12.10;45.10
728;DHT22;347;48.780;9.158;2023-04-24T04:04:57;12.10;44.70
728;DHT22;347;48.780;9.158;2023-04-24T04:07:22;12.10;44.90
728;DHT22;347;48.780;9.158;2023-04-24T04:09:48;12.10;46.10
728;DHT22;347;48.780;9.158;2023-04-24T04:12:13;12.10;45.90
728;DHT22;347;48.780;9.158;2023-04-24T04:14:39;12.10;45.60
728;DHT22;347;48.780;9.158;2023-04-24T04:17:05;12.10;45.90
728;DHT22;347;48.780;9.158;2023-04-24T04:19:31;12.10;45.80
728;DHT22;347;48.780;9.158;2023-04-24T04:21:56;12.10;45.60
728;DHT22;347;48.780;9.158;2023-04-24T04:24:22;12.00;45.40
728;DHT22;347;48.780;9.158;2023-04-24T04:26:49;12.10;46.30
728;DHT22;347;48.780;9.158;2023-04-24T04:29:17;12.10;47.00
728;DHT22;347;48.780;9.158;2023-04-24T04:31:44;12.20;47.80
728;DHT22;347;48.780;9.158;2023-04-24T04:34:10;12.10;45.30
728;DHT22;347;48.780;9.158;2023-04-24T04:36:37;12.20;45.70
728;DHT22;347;48.780;9.158;2023-04-24T04:39:05;12.00;44.50
728;DHT22;347;48.780;9.158;2023-04-24T04:41:31;11.90;45.10
728;DHT22;347;48.780;9.158;2023-04-24T04:43:57;11.90;45.40
728;DHT22;347;48.780;9.158;2023-04-24T04:46:26;12.00;44.90
728;DHT22;347;48.780;9.158;2023-04-24T04:48:52;11.90;44.60
728;DHT22;347;48.780;9.158;2023-04-24T04:51:18;11.70;43.10
728;DHT22;347;48.780;9.158;2023-04-24T04:53:44;11.60;43.30
728;DHT22;347;48.780;9.158;2023-04-24T04:56:10;11.60;43.30
728;DHT22;347;48.780;9.158;2023-04-24T04:58:35;11.50;43.00
728;DHT22;347;48.780;9.158;2023-04-24T05:01:01;11.50;43.00
728;DHT22;347;48.780;9.158;2023-04-24T05:03:27;11.50;43.30
728;DHT22;347;48.780;9.158;2023-04-24T05:05:53;11.40;42.80
728;DHT22;347;48.780;9.158;2023-04-24T05:08:18;11.40;44.30
728;DHT22;347;48.780;9.158;2023-04-24T05:10:45;11.40;44.30
728;DHT22;347;48.780;9.158;2023-04-24T05:13:10;11.50;44.40
728;DHT22;347;48.780;9.158;2023-04-24T05:15:36;11.50;44.50
728;DHT22;347;48.780;9.158;2023-04-24T05:18:02;11.50;43.80
728;DHT22;347;48.780;9.158;2023-04-24T05:20:28;11.70;43.90
728;DHT22;347;48.780;9.158;2023-04-24T05:22:53;11.70;43.10
728;DHT22;347;48.780;9.158;2023-04-24T05:25:19;11.70;43.10
728;DHT22;347;48.780;9.158;2023-04-24T05:27:45;11.60;42.50
728;DHT22;347;48.780;9.158;2023-04-24T05:30:12;11.70;43.10
728;DHT22;347;48.780;9.158;2023-04-24T05:32:37;11.70;43.10
728;DHT22;347;48.780;9.158;2023-04-24T05:35:03;11.80;42.70
728;DHT22;347;48.780;9.158;2023-04-24T05:37:29;11.80;41.50
728;DHT22;347;48.780;9.158;2023-04-24T05:39:54;11.70;41.90
728;DHT22;347;48.780;9.158;2023-04-24T05:42:20;11.60;43.10
728;DHT22;347;48.780;9.158;2023-04-24T05:44:46;11.50;42.20
728;DHT22;347;48.780;9.158;2023-04-24T05:47:13;11.40;42.00
728;DHT22;347;48.780;9.158;2023-04-24T05:49:38;11.40;42.00
728;DHT22;347;48.780;9.158;2023-04-24T05:52:05;11.30;42.40
728;DHT22;347;48.780;9.158;2023-04-24T05:54:34;11.30;42.50
728;DHT22;347;48.780;9.158;2023-04-24T05:56:59;11.30;42.80
728;DHT22;347;48.780;9.158;2023-04-24T05:59:26;11.40;42.80
728;DHT22;347;48.780;9.158;2023-04-24T06:01:52;11.50;43.00
728;DHT22;347;48.780;9.158;2023-04-24T06:04:17;11.50;42.20
728;DHT22;347;48.780;9.158;2023-04-24T06:06:43;11.50;41.90
728;DHT22;347;48.780;9.158;2023-04-24T06:09:09;11.40;41.90
728;DHT22;347;48.780;9.158;2023-04-24T06:11:34;11.40;42.70
728;DHT22;347;48.780;9.158;2023-04-24T06:14:00;11.40;41.90
728;DHT22;347;48.780;9.158;2023-04-24T06:16:26;11.30;42.50
728;DHT22;347;48.780;9.158;2023-04-24T06:18:51;11.30;41.50
728;DHT22;347;48.780;9.158;2023-04-24T06:21:17;11.40;41.70
728;DHT22;347;48.780;9.158;2023-04-24T06:23:43;11.40;42.90
728;DHT22;347;48.780;9.158;2023-04-24T06:26:08;11.40;41.40
728;DHT22;347;48.780;9.158;2023-04-24T06:28:34;11.40;41.80
728;DHT22;347;48.780;9.158;2023-04-24T06:31:00;11.40;41.40
728;DHT22;347;48.780;9.158;2023-04-24T06:33:26;11.50;41.30
728;DHT22;347;48.780;9.158;2023-04-24T06:35:51;11.50;41.30
728;DHT22;347;48.780;9.158;2023-04-24T06:38:17;11.50;39.70
728;DHT22;347;48.780;9.158;2023-04-24T06:40:43;11.60;40.00
728;DHT22;347;48.780;9.158;2023-04-24T06:43:08;11.60;38.20
728;DHT22;347;48.780;9.158;2023-04-24T06:45:34;11.80;39.80
728;DHT22;347;48.780;9.158;2023-04-24T06:48:00;12.00;38.80
728;DHT22;347;48.780;9.158;2023-04-24T06:50:26;12.00;37.10
728;DHT22;347;48.780;9.158;2023-04-24T06:52:51;12.10;36.60
728;DHT22;347;48.780;9.158;2023-04-24T06:55:17;12.20;36.20
728;DHT22;347;48.780;9.158;2023-04-24T06:57:43;12.20;35.80
728;DHT22;347;48.780;9.158;2023-04-24T07:00:10;12.40;35.10
728;DHT22;347;48.780;9.158;2023-04-24T07:02:36;12.50;33.70
728;DHT22;347;48.780;9.158;2023-04-24T07:05:03;12.40;31.30
728;DHT22;347;48.780;9.158;2023-04-24T07:07:29;12.50;32.50
728;DHT22;347;48.780;9.158;2023-04-24T07:09:54;12.50;31.70
728;DHT22;347;48.780;9.158;2023-04-24T07:12:21;12.50;32.80
728;DHT22;347;48.780;9.158;2023-04-24T07:14:47;12.40;32.00
728;DHT22;347;48.780;9.158;2023-04-24T07:17:13;12.40;33.00
728;DHT22;347;48.780;9.158;2023-04-24T07:19:39;12.40;33.20
728;DHT22;347;48.780;9.158;2023-04-24T07:22:05;12.50;33.30
728;DHT22;347;48.780;9.158;2023-04-24T07:24:31;12.50;33.40
728;DHT22;347;48.780;9.158;2023-04-24T07:26:59;12.60;32.60
728;DHT22;347;48.780;9.158;2023-04-24T07:29:26;12.60;30.50
728;DHT22;347;48.780;9.158;2023-04-24T07:31:52;12.50;29.50
728;DHT22;347;48.780;9.158;2023-04-24T07:34:19;12.50;30.30
728;DHT22;347;48.780;9.158;2023-04-24T07:36:45;12.50;29.00
728;DHT22;347;48.780;9.158;2023-04-24T07:39:11;12.50;28.80
728;DHT22;347;48.780;9.158;2023-04-24T07:41:37;12.60;28.20
728;DHT22;347;48.780;9.158;2023-04-24T07:44:03;12.70;26.30
728;DHT22;347;48.780;9.158;2023-04-24T07:46:30;12.80;27.60
728;DHT22;347;48.780;9.158;2023-04-24T07:48:55;12.90;24.50
728;DHT22;347;48.780;9.158;2023-04-24T07:51:21;12.90;24.40
728;DHT22;347;48.780;9.158;2023-04-24T07:53:47;12.90;24.60
728;DHT22;347;48.780;9.158;2023-04-24T07:56:12;12.80;24.30
728;DHT22;347;48.780;9.158;2023-04-24T07:58:38;12.70;24.70
728;DHT22;347;48.780;9.158;2023-04-24T08:01:04;12.60;25.00
728;DHT22;347;48.780;9.158;2023-04-24T08:03:29;12.80;23.70
728;DHT22;347;48.780;9.158;2023-04-24T08:05:55;12.80;23.50
728;DHT22;347;48.780;9.158;2023-04-24T08:08:22;12.60;23.50
728;DHT22;347;48.780;9.158;2023-04-24T08:10:48;12.70;23.50
728;DHT22;347;48.780;9.158;2023-04-24T08:13:14;12.60;23.50
728;DHT22;347;48.780;9.158;2023-04-24T08:15:39;12.50;23.30
728;DHT22;347;48.780;9.158;2023-04-24T08:18:05;12.50;23.40
728;DHT22;347;48.780;9.158;2023-04-24T08:20:31;12.50;23.80
728;DHT22;347;48.780;9.158;2023-04-24T08:22:56;12.60;24.10
728;DHT22;347;48.780;9.158;2023-04-24T08:25:22;12.60;22.80
728;DHT22;347;48.780;9.158;2023-04-24T08:27:50;12.70;23.20
728;DHT22;347;48.780;9.158;2023-04-24T08:30:15;12.80;22.80
728;DHT22;347;48.780;9.158;2023-04-24T08:32:41;12.90;22.40
728;DHT22;347;48.780;9.158;2023-04-24T08:35:07;12.90;22.50
728;DHT22;347;48.780;9.158;2023-04-24T08:37:34;12.90;22.50
728;DHT22;347;48.780;9.158;2023-04-24T08:40:01;12.90;22.80
728;DHT22;347;48.780;9.158;2023-04-24T08:42:28;13.10;22.10
728;DHT22;347;48.780;9.158;2023-04-24T08:44:58;13.10;22.00
728;DHT22;347;48.780;9.158;2023-04-24T08:47:24;13.00;22.60
728;DHT22;347;48.780;9.158;2023-04-24T08:49:52;12.80;23.60
728;DHT22;347;48.780;9.158;2023-04-24T08:52:18;12.70;23.60
728;DHT22;347;48.780;9.158;2023-04-24T08:54:45;12.50;27.30
728;DHT22;347;48.780;9.158;2023-04-24T08:57:13;12.60;25.20
728;DHT22;347;48.780;9.158;2023-04-24T08:59:39;12.50;25.70
728;DHT22;347;48.780;9.158;2023-04-24T09:02:06;12.50;28.20
728;DHT22;347;48.780;9.158;2023-04-24T09:04:35;12.60;26.70
728;DHT22;347;48.780;9.158;2023-04-24T09:07:01;12.60;26.00
728;DHT22;347;48.780;9.158;2023-04-24T09:09:30;12.60;25.00
728;DHT22;347;48.780;9.158;2023-04-24T09:11:56;12.50;25.20
728;DHT22;347;48.780;9.158;2023-04-24T09:14:23;12.70;25.50
728;DHT22;347;48.780;9.158;2023-04-24T09:16:49;12.60;25.50
728;DHT22;347;48.780;9.158;2023-04-24T09:19:15;12.70;29.10
728;DHT22;347;48.780;9.158;2023-04-24T09:21:41;12.40;29.80
728;DHT22;347;48.780;9.158;2023-04-24T09:24:16;12.50;28.20
728;DHT22;347;48.780;9.158;2023-04-24T09:26:48;12.50;27.90
728;DHT22;347;48.780;9.158;2023-04-24T09:29:15;12.30;29.80
728;DHT22;347;48.780;9.158;2023-04-24T09:31:42;12.10;31.80
728;DHT22;347;48.780;9.158;2023-04-24T09:34:07;12.00;30.00
728;DHT22;347;48.780;9.158;2023-04-24T09:39:01;11.60;32.90
728;DHT22;347;48.780;9.158;2023-04-24T09:41:27;11.50;33.50
728;DHT22;347;48.780;9.158;2023-04-24T09:43:55;11.60;32.70
728;DHT22;347;48.780;9.158;2023-04-24T09:46:20;11.60;31.50
728;DHT22;347;48.780;9.158;2023-04-24T09:48:49;11.70;32.60
728;DHT22;347;48.780;9.158;2023-04-24T09:51:14;11.70;32.70
728;DHT22;347;48.780;9.158;2023-04-24T09:53:45;11.70;32.10
728;DHT22;347;48.780;9.158;2023-04-24T09:56:11;11.90;28.60
728;DHT22;347;48.780;9.158;2023-04-24T09:58:39;12.10;28.40
728;DHT22;347;48.780;9.158;2023-04-24T10:01:05;12.10;27.80
728;DHT22;347;48.780;9.158;2023-04-24T10:03:32;12.20;28.40
728;DHT22;347;48.780;9.158;2023-04-24T10:05:59;12.20;26.50
728;DHT22;347;48.780;9.158;2023-04-24T10:08:25;12.30;26.00
728;DHT22;347;48.780;9.158;2023-04-24T10:10:52;12.30;23.90
728;DHT22;347;48.780;9.158;2023-04-24T10:13:18;12.50;23.90
728;DHT22;347;48.780;9.158;2023-04-24T10:15:44;12.60;22.80
728;DHT22;347;48.780;9.158;2023-04-24T10:18:10;12.70;22.40
728;DHT22;347;48.780;9.158;2023-04-24T10:20:40;13.00;21.60
728;DHT22;347;48.780;9.158;2023-04-24T10:23:06;13.20;19.60
728;DHT22;347;48.780;9.158;2023-04-24T10:25:33;13.40;18.40
728;DHT22;347;48.780;9.158;2023-04-24T10:28:00;13.60;18.20
728;DHT22;347;48.780;9.158;2023-04-24T10:30:27;13.90;17.60
728;DHT22;347;48.780;9.158;2023-04-24T10:32:53;14.00;17.10
728;DHT22;347;48.780;9.158;2023-04-24T10:35:19;13.80;16.00
728;DHT22;347;48.780;9.158;2023-04-24T10:40:19;13.70;17.20
728;DHT22;347;48.780;9.158;2023-04-24T10:42:51;13.60;17.70
728;DHT22;347;48.780;9.158;2023-04-24T10:45:20;13.50;17.90
728;DHT22;347;48.780;9.158;2023-04-24T10:50:22;13.30;18.70
728;DHT22;347;48.780;9.158;2023-04-24T10:52:49;13.30;18.60
728;DHT22;347;48.780;9.158;2023-04-24T10:55:17;13.40;17.70
728;DHT22;347;48.780;9.158;2023-04-24T10:58:05;13.40;18.40
728;DHT22;347;48.780;9.158;2023-04-24T11:00:31;13.30;18.50
728;DHT22;347;48.780;9.158;2023-04-24T11:02:57;13.20;18.80
728;DHT22;347;48.780;9.158;2023-04-24T11:05:49;13.40;18.90
728;DHT22;347;48.780;9.158;2023-04-24T11:10:54;13.30;19.10
728;DHT22;347;48.780;9.158;2023-04-24T11:13:25;13.30;18.60
728;DHT22;347;48.780;9.158;2023-04-24T11:16:13;13.20;19.00
728;DHT22;347;48.780;9.158;2023-04-24T11:18:40;13.30;20.10
728;DHT22;347;48.780;9.158;2023-04-24T11:21:15;13.50;18.90
728;DHT22;347;48.780;9.158;2023-04-24T11:23:41;13.50;19.10
728;DHT22;347;48.780;9.158;2023-04-24T11:26:17;13.30;18.70
728;DHT22;347;48.780;9.158;2023-04-24T11:28:47;13.30;19.00
728;DHT22;347;48.780;9.158;2023-04-24T11:31:36;13.30;18.60
728;DHT22;347;48.780;9.158;2023-04-24T11:34:11;13.40;18.50
728;DHT22;347;48.780;9.158;2023-04-24T11:36:38;13.50;17.60
728;DHT22;347;48.780;9.158;2023-04-24T11:39:04;13.70;17.40
728;DHT22;347;48.780;9.158;2023-04-24T11:41:31;13.90;17.50
728;DHT22;347;48.780;9.158;2023-04-24T11:43:57;13.80;17.50
728;DHT22;347;48.780;9.158;2023-04-24T11:46:26;13.80;17.50
728;DHT22;347;48.780;9.158;2023-04-24T11:48:52;13.80;18.00
728;DHT22;347;48.780;9.158;2023-04-24T11:51:18;13.60;18.40
728;DHT22;347;48.780;9.158;2023-04-24T11:53:44;13.40;18.90
728;DHT22;347;48.780;9.158;2023-04-24T11:56:09;13.20;19.50
728;DHT22;347;48.780;9.158;2023-04-24T11:58:35;13.10;24.30
728;DHT22;347;48.780;9.158;2023-04-24T12:01:01;12.80;22.00
728;DHT22;347;48.780;9.158;2023-04-24T12:03:27;13.00;21.60
728;DHT22;347;48.780;9.158;2023-04-24T12:06:07;13.10;20.30
728;DHT22;347;48.780;9.158;2023-04-24T12:08:33;13.10;20.10
728;DHT22;347;48.780;9.158;2023-04-24T12:11:04;13.30;20.30
728;DHT22;347;48.780;9.158;2023-04-24T12:13:31;13.50;19.60
728;DHT22;347;48.780;9.158;2023-04-24T12:15:57;13.50;18.90
728;DHT22;347;48.780;9.158;2023-04-24T12:18:24;13.40;18.70
728;DHT22;347;48.780;9.158;2023-04-24T12:20:50;13.20;18.90
728;DHT22;347;48.780;9.158;2023-04-24T12:23:16;13.10;19.40
728;DHT22;347;48.780;9.158;2023-04-24T12:25:43;13.20;19.10
728;DHT22;347;48.780;9.158;2023-04-24T12:28:13;13.10;19.30
728;DHT22;347;48.780;9.158;2023-04-24T12:30:44;13.10;19.00
728;DHT22;347;48.780;9.158;2023-04-24T12:33:20;13.10;18.90
728;DHT22;347;48.780;9.158;2023-04-24T12:35:47;13.20;18.80
728;DHT22;347;48.780;9.158;2023-04-24T12:38:13;13.30;18.70
728;DHT22;347;48.780;9.158;2023-04-24T12:40:40;13.30;18.30
728;DHT22;347;48.780;9.158;2023-04-24T12:43:19;13.20;18.50
728;DHT22;347;48.780;9.158;2023-04-24T12:45:47;13.40;18.60
728;DHT22;347;48.780;9.158;2023-04-24T12:48:12;13.50;18.50
728;DHT22;347;48.780;9.158;2023-04-24T12:50:39;13.60;18.20
728;DHT22;347;48.780;9.158;2023-04-24T12:53:06;13.60;18.20
728;DHT22;347;48.780;9.158;2023-04-24T12:55:32;13.60;18.60
728;DHT22;347;48.780;9.158;2023-04-24T12:57:57;13.50;18.10
728;DHT22;347;48.780;9.158;2023-04-24T13:00:23;13.40;18.00
728;DHT22;347;48.780;9.158;2023-04-24T13:02:49;13.20;18.50
728;DHT22;347;48.780;9.158;2023-04-24T13:05:15;13.10;19.60
728;DHT22;347;48.780;9.158;2023-04-24T13:07:41;13.10;23.80
728;DHT22;347;48.780;9.158;2023-04-24T13:10:07;12.90;25.00
728;DHT22;347;48.780;9.158;2023-04-24T13:12:32;12.80;26.30
728;DHT22;347;48.780;9.158;2023-04-24T13:14:58;12.70;28.50
728;DHT22;347;48.780;9.158;2023-04-24T13:17:24;12.80;29.10
728;DHT22;347;48.780;9.158;2023-04-24T13:19:51;12.80;27.90
728;DHT22;347;48.780;9.158;2023-04-24T13:22:17;12.70;28.60
728;DHT22;347;48.780;9.158;2023-04-24T13:24:44;12.60;29.20
728;DHT22;347;48.780;9.158;2023-04-24T13:27:10;12.60;27.90
728;DHT22;347;48.780;9.158;2023-04-24T13:29:37;12.60;26.90
728;DHT22;347;48.780;9.158;2023-04-24T13:32:02;12.60;28.20
728;DHT22;347;48.780;9.158;2023-04-24T13:34:28;12.60;27.40
728;DHT22;347;48.780;9.158;2023-04-24T13:36:55;12.70;28.70
728;DHT22;347;48.780;9.158;2023-04-24T13:39:22;12.70;27.60
728;DHT22;347;48.780;9.158;2023-04-24T13:41:48;12.80;28.60
728;DHT22;347;48.780;9.158;2023-04-24T13:44:14;12.80;28.00
728;DHT22;347;48.780;9.158;2023-04-24T13:46:41;12.90;27.40
728;DHT22;347;48.780;9.158;2023-04-24T13:49:08;12.90;26.20
728;DHT22;347;48.780;9.158;2023-04-24T13:51:33;12.80;27.50
728;DHT22;347;48.780;9.158;2023-04-24T13:53:59;12.20;32.80
728;DHT22;347;48.780;9.158;2023-04-24T13:56:25;11.90;35.40
728;DHT22;347;48.780;9.158;2023-04-24T13:58:51;11.60;36.90
728;DHT22;347;48.780;9.158;2023-04-24T14:01:17;11.40;38.50
728;DHT22;347;48.780;9.158;2023-04-24T14:03:42;11.40;41.60
728;DHT22;347;48.780;9.158;2023-04-24T14:06:11;11.40;42.40
728;DHT22;347;48.780;9.158;2023-04-24T14:08:36;11.50;41.40
728;DHT22;347;48.780;9.158;2023-04-24T14:11:02;11.60;39.50
728;DHT22;347;48.780;9.158;2023-04-24T14:13:28;11.60;39.80
728;DHT22;347;48.780;9.158;2023-04-24T14:15:54;11.60;38.60
728;DHT22;347;48.780;9.158;2023-04-24T14:18:20;11.80;40.20
728;DHT22;347;48.780;9.158;2023-04-24T14:20:45;11.90;38.20
728;DHT22;347;48.780;9.158;2023-04-24T14:23:11;11.90;40.10
728;DHT22;347;48.780;9.158;2023-04-24T14:25:37;12.10;38.80
728;DHT22;347;48.780;9.158;2023-04-24T14:28:03;12.10;35.80
728;DHT22;347;48.780;9.158;2023-04-24T14:30:28;12.10;36.00
728;DHT22;347;48.780;9.158;2023-04-24T14:32:54;12.30;36.80
728;DHT22;347;48.780;9.158;2023-04-24T14:35:19;12.50;35.90
728;DHT22;347;48.780;9.158;2023-04-24T14:37:45;12.50;35.70
728;DHT22;347;48.780;9.158;2023-04-24T14:40:11;12.60;33.80
728;DHT22;347;48.780;9.158;2023-04-24T14:42:37;12.70;31.60
728;DHT22;347;48.780;9.158;2023-04-24T14:45:03;12.70;30.20
728;DHT22;347;48.780;9.158;2023-04-24T14:47:28;12.60;28.80
728;DHT22;347;48.780;9.158;2023-04-24T14:49:54;12.60;29.50
728;DHT22;347;48.780;9.158;2023-04-24T14:52:20;12.60;29.20
728;DHT22;347;48.780;9.158;2023-04-24T14:54:46;12.70;29.10
728;DHT22;347;48.780;9.158;2023-04-24T14:57:12;12.80;30.10
728;DHT22;347;48.780;9.158;2023-04-24T14:59:38;12.70;27.40
728;DHT22;347;48.780;9.158;2023-04-24T15:02:03;12.80;29.20
728;DHT22;347;48.780;9.158;2023-04-24T15:04:29;12.80;28.40
728;DHT22;347;48.780;9.158;2023-04-24T15:06:56;12.80;27.40
728;DHT22;347;48.780;9.158;2023-04-24T15:09:23;12.80;28.10
728;DHT22;347;48.780;9.158;2023-04-24T15:11:49;12.70;26.20
728;DHT22;347;48.780;9.158;2023-04-24T15:14:16;12.80;26.10
728;DHT22;347;48.780;9.158;2023-04-24T15:16:42;12.80;25.90
728;DHT22;347;48.780;9.158;2023-04-24T15:19:07;13.00;25.80
728;DHT22;347;48.780;9.158;2023-04-24T15:21:33;13.10;24.80
728;DHT22;347;48.780;9.158;2023-04-24T15:23:59;13.00;25.30
728;DHT22;347;48.780;9.158;2023-04-24T15:26:25;12.90;26.00
728;DHT22;347;48.780;9.158;2023-04-24T15:28:51;12.90;25.20
728;DHT22;347;48.780;9.158;2023-04-24T15:31:18;13.10;25.30
728;DHT22;347;48.780;9.158;2023-04-24T15:33:44;13.20;25.40
728;DHT22;347;48.780;9.158;2023-04-24T15:36:09;13.30;25.40
728;DHT22;347;48.780;9.158;2023-04-24T15:38:36;13.20;27.80
728;DHT22;347;48.780;9.158;2023-04-24T15:41:02;13.10;29.70
728;DHT22;347;48.780;9.158;2023-04-24T15:43:27;12.80;31.50
728;DHT22;347;48.780;9.158;2023-04-24T15:45:56;12.70;31.60
728;DHT22;347;48.780;9.158;2023-04-24T15:48:22;12.30;33.50
728;DHT22;347;48.780;9.158;2023-04-24T15:50:48;12.30;35.40
728;DHT22;347;48.780;9.158;2023-04-24T15:53:14;12.20;33.90
728;DHT22;347;48.780;9.158;2023-04-24T15:55:46;12.10;33.40
728;DHT22;347;48.780;9.158;2023-04-24T15:58:12;12.10;34.40
728;DHT22;347;48.780;9.158;2023-04-24T16:00:38;11.90;32.20
728;DHT22;347;48.780;9.158;2023-04-24T16:03:03;11.90;35.00
728;DHT22;347;48.780;9.158;2023-04-24T16:05:29;11.90;34.80
728;DHT22;347;48.780;9.158;2023-04-24T16:07:55;11.90;35.60
728;DHT22;347;48.780;9.158;2023-04-24T16:10:21;11.80;36.10
728;DHT22;347;48.780;9.158;2023-04-24T16:12:47;11.90;37.10
728;DHT22;347;48.780;9.158;2023-04-24T16:15:12;11.90;36.00
728;DHT22;347;48.780;9.158;2023-04-24T16:17:38;11.90;33.70
728;DHT22;347;48.780;9.158;2023-04-24T16:20:04;11.80;33.90
728;DHT22;347;48.780;9.158;2023-04-24T16:22:30;11.90;35.40
728;DHT22;347;48.780;9.158;2023-04-24T16:24:56;12.00;33.20
728;DHT22;347;48.780;9.158;2023-04-24T16:27:24;12.10;33.40
728;DHT22;347;48.780;9.158;2023-04-24T16:29:49;12.10;34.40
728;DHT22;347;48.780;9.158;2023-04-24T16:32:15;12.00;30.90
728;DHT22;347;48.780;9.158;2023-04-24T16:34:41;12.00;32.40
728;DHT22;347;48.780;9.158;2023-04-24T16:37:07;12.20;31.40
728;DHT22;347;48.780;9.158;2023-04-24T16:39:33;12.30;32.00
728;DHT22;347;48.780;9.158;2023-04-24T16:41:59;12.40;30.90